createdAt,value
2018-07-25T00:01:09.117Z,3.83
2018-07-25T00:03:37.448Z,4.30
2018-07-25T00:06:05.644Z,6.33
2018-07-25T00:08:33.968Z,4.33
2018-07-25T00:11:02.341Z,4.53
2018-07-25T00:13:31.140Z,4.87
2018-07-25T00:15:59.546Z,4.07
2018-07-25T00:18:28.408Z,7.47
2018-07-25T00:20:57.430Z,4.00
2018-07-25T00:23:26.390Z,3.80
2018-07-25T00:25:55.970Z,5.10
2018-07-25T00:28:24.242Z,3.90
2018-07-25T00:30:52.319Z,4.67
2018-07-25T00:33:20.507Z,6.00
2018-07-25T00:35:48.747Z,5.57
2018-07-25T00:38:17.522Z,5.70
2018-07-25T00:40:45.792Z,4.10
2018-07-25T00:43:14.209Z,4.17
2018-07-25T00:45:43.507Z,5.00
2018-07-25T00:48:11.815Z,4.23
2018-07-25T00:50:40.035Z,3.97
2018-07-25T00:53:08.568Z,4.30
2018-07-25T00:55:37.065Z,4.83
2018-07-25T00:58:05.983Z,4.10
2018-07-25T01:00:34.121Z,4.73
2018-07-25T01:03:02.878Z,4.00
2018-07-25T01:05:30.967Z,4.93
2018-07-25T01:08:00.010Z,3.63
2018-07-25T01:10:28.571Z,4.03
2018-07-25T01:12:57.667Z,4.13
2018-07-25T01:15:25.877Z,4.00
2018-07-25T01:17:54.441Z,4.30
2018-07-25T01:20:22.793Z,4.57
2018-07-25T01:22:50.867Z,4.17
2018-07-25T01:25:19.161Z,4.07
2018-07-25T01:27:47.996Z,3.97
2018-07-25T01:30:16.130Z,4.77
2018-07-25T01:32:44.322Z,3.97
2018-07-25T01:35:12.550Z,4.30
2018-07-25T01:37:41.030Z,4.10
2018-07-25T01:40:09.840Z,4.90
2018-07-25T01:42:38.140Z,4.70
2018-07-25T01:45:08.310Z,5.93
2018-07-25T01:47:36.564Z,4.20
2018-07-25T01:50:05.798Z,3.80
2018-07-25T01:52:34.128Z,6.00
2018-07-25T01:55:02.368Z,5.00
2018-07-25T01:57:30.651Z,4.73
2018-07-25T01:59:58.842Z,4.33
2018-07-25T02:02:27.214Z,7.03
2018-07-25T02:04:55.386Z,5.43
2018-07-25T02:07:23.756Z,3.70
2018-07-25T02:09:52.344Z,4.77
2018-07-25T02:12:21.364Z,6.67
2018-07-25T02:14:49.437Z,4.83
2018-07-25T02:17:17.630Z,3.70
2018-07-25T02:19:46.818Z,5.03
2018-07-25T02:22:15.704Z,6.27
2018-07-25T02:24:43.761Z,5.33
2018-07-25T02:27:11.947Z,4.90
2018-07-25T02:29:40.130Z,4.63
2018-07-25T02:32:08.382Z,5.10
2018-07-25T02:34:36.377Z,4.60
2018-07-25T02:37:05.657Z,4.40
2018-07-25T02:39:33.877Z,5.40
2018-07-25T02:42:02.016Z,5.93
2018-07-25T02:44:33.181Z,6.97
2018-07-25T02:47:01.805Z,6.97
2018-07-25T02:49:29.934Z,6.07
2018-07-25T02:51:58.280Z,6.17
2018-07-25T02:54:26.279Z,6.63
2018-07-25T02:56:54.522Z,5.00
2018-07-25T02:59:23.479Z,4.80
2018-07-25T03:01:51.725Z,5.13
2018-07-25T03:04:19.998Z,4.60
2018-07-25T03:06:49.029Z,5.70
2018-07-25T03:09:17.489Z,5.53
2018-07-25T03:11:46.647Z,5.10
2018-07-25T03:14:16.277Z,4.40
2018-07-25T03:16:44.660Z,5.13
2018-07-25T03:19:13.225Z,5.50
2018-07-25T03:21:42.927Z,6.37
2018-07-25T03:24:11.727Z,5.10
2018-07-25T03:26:40.743Z,7.40
2018-07-25T03:29:10.163Z,6.40
2018-07-25T03:31:38.397Z,5.00
2018-07-25T03:34:07.257Z,7.13
2018-07-25T03:36:35.354Z,5.57
2018-07-25T03:39:05.274Z,5.93
2018-07-25T03:41:33.310Z,4.70
2018-07-25T03:44:01.746Z,5.30
2018-07-25T03:46:29.836Z,5.50
2018-07-25T03:48:58.262Z,7.07
2018-07-25T03:51:26.349Z,6.07
2018-07-25T03:53:54.834Z,6.93
2018-07-25T03:56:22.892Z,5.80
2018-07-25T03:58:51.386Z,4.90
2018-07-25T04:01:19.546Z,5.27
2018-07-25T04:03:48.406Z,7.00
2018-07-25T04:06:17.401Z,4.93
2018-07-25T04:08:45.700Z,5.60
2018-07-25T04:11:14.369Z,5.40
2018-07-25T04:13:42.683Z,5.43
2018-07-25T04:16:11.437Z,6.13
2018-07-25T04:18:39.611Z,6.67
2018-07-25T04:21:07.716Z,7.70
2018-07-25T04:23:35.759Z,5.10
2018-07-25T04:26:04.281Z,7.00
2018-07-25T04:28:32.335Z,6.00
2018-07-25T04:31:00.583Z,5.63
2018-07-25T04:33:28.742Z,5.10
2018-07-25T04:35:56.928Z,7.00
2018-07-25T04:38:25.010Z,5.47
2018-07-25T04:40:53.476Z,8.07
2018-07-25T04:43:21.682Z,10.43
2018-07-25T04:45:49.804Z,6.93
2018-07-25T04:48:17.983Z,7.37
2018-07-25T04:50:46.890Z,9.37
2018-07-25T04:53:15.054Z,6.50
2018-07-25T04:55:43.345Z,5.77
2018-07-25T04:58:11.554Z,6.70
2018-07-25T05:00:40.417Z,7.00
2018-07-25T05:03:09.747Z,6.30
2018-07-25T05:05:37.921Z,6.30
2018-07-25T05:08:06.436Z,7.17
2018-07-25T05:10:34.529Z,5.50
2018-07-25T05:13:02.735Z,9.57
2018-07-25T05:15:30.911Z,7.07
2018-07-25T05:17:59.991Z,7.17
2018-07-25T05:20:28.057Z,7.47
2018-07-25T05:22:56.675Z,7.47
2018-07-25T05:25:25.044Z,4.77
2018-07-25T05:27:53.160Z,4.40
2018-07-25T05:30:21.353Z,5.97
2018-07-25T05:32:49.598Z,9.60
2018-07-25T05:35:17.633Z,4.53
2018-07-25T05:37:45.718Z,4.83
2018-07-25T05:40:14.338Z,9.20
2018-07-25T05:42:42.710Z,17.87
2018-07-25T05:45:10.728Z,27.23
2018-07-25T05:47:38.942Z,16.93
2018-07-25T05:50:07.253Z,12.87
2018-07-25T05:52:35.610Z,8.30
2018-07-25T05:55:04.042Z,6.30
2018-07-25T05:57:32.722Z,6.67
2018-07-25T06:00:00.908Z,9.57
2018-07-25T06:02:29.021Z,4.37
2018-07-25T06:04:57.279Z,8.63
2018-07-25T06:07:25.747Z,6.20
2018-07-25T06:09:54.689Z,7.97
2018-07-25T06:12:22.844Z,4.77
2018-07-25T06:14:51.031Z,6.10
2018-07-25T06:17:20.692Z,4.03
2018-07-25T06:19:49.377Z,6.55
2018-07-25T06:22:17.829Z,4.60
2018-07-25T06:24:45.996Z,6.33
2018-07-25T06:27:14.239Z,5.60
2018-07-25T06:29:42.675Z,5.12
2018-07-25T06:32:11.341Z,3.83
2018-07-25T06:34:39.581Z,4.92
2018-07-25T06:37:08.705Z,6.55
2018-07-25T06:39:36.803Z,6.90
2018-07-25T06:42:06.332Z,6.42
2018-07-25T06:44:34.465Z,4.30
2018-07-25T06:47:02.768Z,2.95
2018-07-25T06:49:30.882Z,7.67
2018-07-25T06:51:59.706Z,4.45
2018-07-25T06:54:28.095Z,4.15
2018-07-25T06:56:56.669Z,4.35
2018-07-25T06:59:24.988Z,5.05
2018-07-25T07:01:53.760Z,4.25
2018-07-25T07:04:21.992Z,6.50
2018-07-25T07:06:50.189Z,4.25
2018-07-25T07:09:18.459Z,3.42
2018-07-25T07:11:46.578Z,5.30
2018-07-25T07:14:14.824Z,5.45
2018-07-25T07:16:44.066Z,4.70
2018-07-25T07:19:12.308Z,4.70
2018-07-25T07:21:41.078Z,5.33
2018-07-25T07:24:15.986Z,3.20
2018-07-25T07:26:45.063Z,2.85
2018-07-25T07:29:13.182Z,2.55
2018-07-25T07:31:42.087Z,4.00
2018-07-25T07:34:10.192Z,3.37
2018-07-25T07:36:38.874Z,4.62
2018-07-25T07:39:11.070Z,2.90
2018-07-25T07:41:40.179Z,2.67
2018-07-25T07:44:08.841Z,2.87
2018-07-25T07:46:37.436Z,6.08
2018-07-25T07:49:06.464Z,5.90
2018-07-25T07:51:34.764Z,7.12
2018-07-25T07:54:03.381Z,4.42
2018-07-25T07:56:32.868Z,3.40
2018-07-25T07:59:01.204Z,4.22
2018-07-25T08:01:29.764Z,4.28
2018-07-25T08:03:58.182Z,4.92
2018-07-25T08:06:26.554Z,3.08
2018-07-25T08:08:54.659Z,3.27
2018-07-25T08:11:23.891Z,2.87
2018-07-25T08:13:52.013Z,2.22
2018-07-25T08:16:20.183Z,2.10
2018-07-25T08:18:48.283Z,4.72
2018-07-25T08:21:16.674Z,4.00
2018-07-25T08:23:44.842Z,2.27
2018-07-25T08:26:13.059Z,3.20
2018-07-25T08:28:41.361Z,3.02
2018-07-25T08:31:10.985Z,4.95
2018-07-25T08:33:39.767Z,3.37
2018-07-25T08:36:07.957Z,2.30
2018-07-25T08:38:38.681Z,2.95
2018-07-25T08:41:07.375Z,3.70
2018-07-25T08:43:37.945Z,3.55
2018-07-25T08:46:07.523Z,4.42
2018-07-25T08:48:35.817Z,3.25
2018-07-25T08:51:05.094Z,6.00
2018-07-25T08:53:33.766Z,3.35
2018-07-25T08:56:01.941Z,2.65
2018-07-25T08:58:30.408Z,3.62
2018-07-25T09:00:59.220Z,3.47
2018-07-25T09:03:27.464Z,4.30
2018-07-25T09:05:55.639Z,2.30
2018-07-25T09:08:23.747Z,2.35
2018-07-25T09:10:51.917Z,2.50
2018-07-25T09:13:20.363Z,2.87
2018-07-25T09:15:48.425Z,3.50
2018-07-25T09:18:16.477Z,2.98
2018-07-25T09:20:44.603Z,2.90
2018-07-25T09:23:12.713Z,4.03
2018-07-25T09:25:40.845Z,3.35
2018-07-25T09:28:08.955Z,3.02
2018-07-25T09:30:37.200Z,4.65
2018-07-25T09:33:06.238Z,4.70
2018-07-25T09:35:35.263Z,2.98
2018-07-25T09:38:03.415Z,3.45
2018-07-25T09:40:31.655Z,2.70
2018-07-25T09:42:59.799Z,3.22
2018-07-25T09:45:28.173Z,4.00
2018-07-25T09:47:56.312Z,4.15
2018-07-25T09:50:24.522Z,4.45
2018-07-25T09:52:52.837Z,4.78
2018-07-25T09:55:21.012Z,2.90
2018-07-25T09:57:49.882Z,3.60
2018-07-25T10:00:25.768Z,3.10
2018-07-25T10:02:53.954Z,3.02
2018-07-25T10:05:22.222Z,4.15
2018-07-25T10:07:50.449Z,2.95
2018-07-25T10:10:19.311Z,3.40
2018-07-25T10:12:47.619Z,5.22
2018-07-25T10:15:16.156Z,3.80
2018-07-25T10:17:44.191Z,2.95
2018-07-25T10:20:12.389Z,3.10
2018-07-25T10:22:40.498Z,2.92
2018-07-25T10:25:08.685Z,3.72
2018-07-25T10:27:36.716Z,2.75
2018-07-25T10:30:05.295Z,3.40
2018-07-25T10:32:33.689Z,3.25
2018-07-25T10:35:01.919Z,4.15
2018-07-25T10:37:30.064Z,3.02
2018-07-25T10:39:58.380Z,2.52
2018-07-25T10:42:28.279Z,2.72
2018-07-25T10:44:56.589Z,3.00
2018-07-25T10:47:24.858Z,3.33
2018-07-25T10:49:53.065Z,2.65
2018-07-25T10:52:21.269Z,2.50
2018-07-25T10:54:49.381Z,3.75
2018-07-25T10:57:24.454Z,3.42
2018-07-25T10:59:53.060Z,3.00
2018-07-25T11:02:21.301Z,2.70
2018-07-25T11:04:49.534Z,4.00
2018-07-25T11:07:17.756Z,2.30
2018-07-25T11:09:45.977Z,3.30
2018-07-25T11:12:14.107Z,2.70
2018-07-25T11:14:42.194Z,3.02
2018-07-25T11:17:10.451Z,2.85
2018-07-25T11:19:38.650Z,2.55
2018-07-25T11:22:06.805Z,1.82
2018-07-25T11:24:34.948Z,3.25
2018-07-25T11:27:03.193Z,2.70
2018-07-25T11:29:32.234Z,3.90
2018-07-25T11:32:00.358Z,2.30
2018-07-25T11:34:28.593Z,3.45
2018-07-25T11:36:56.786Z,2.45
2018-07-25T11:39:24.932Z,2.33
2018-07-25T11:41:53.114Z,3.08
2018-07-25T11:44:21.777Z,2.87
2018-07-25T11:46:49.931Z,2.70
2018-07-25T11:49:18.281Z,2.33
2018-07-25T11:51:46.564Z,2.25
2018-07-25T11:54:14.844Z,1.95
2018-07-25T11:56:43.692Z,1.98
2018-07-25T11:59:11.920Z,2.55
2018-07-25T12:01:40.135Z,2.58
2018-07-25T12:04:10.244Z,2.33
2018-07-25T12:06:38.541Z,3.22
2018-07-25T12:09:09.373Z,2.92
2018-07-25T12:11:43.463Z,3.00
2018-07-25T12:14:12.369Z,2.50
2018-07-25T12:16:40.504Z,3.17
2018-07-25T12:19:08.602Z,2.90
2018-07-25T12:21:36.851Z,1.62
2018-07-25T12:24:05.144Z,4.03
2018-07-25T12:26:33.393Z,2.42
2018-07-25T12:29:01.736Z,3.22
2018-07-25T12:31:29.888Z,5.58
2018-07-25T12:33:57.973Z,2.77
2018-07-25T12:36:26.317Z,4.12
2018-07-25T12:38:54.535Z,2.95
2018-07-25T12:41:22.797Z,1.95
2018-07-25T12:43:51.033Z,2.50
2018-07-25T12:46:19.423Z,5.42
2018-07-25T12:48:47.508Z,2.10
2018-07-25T12:51:16.247Z,3.55
2018-07-25T12:53:44.757Z,4.25
2018-07-25T12:56:13.565Z,2.60
2018-07-25T12:58:41.674Z,1.75
2018-07-25T13:01:09.793Z,4.05
2018-07-25T13:03:37.931Z,4.17
2018-07-25T13:06:06.246Z,2.90
2018-07-25T13:08:34.525Z,3.45
2018-07-25T13:11:02.698Z,2.72
2018-07-25T13:13:30.906Z,2.08
2018-07-25T13:15:59.238Z,18.92
2018-07-25T13:18:27.902Z,3.08
2018-07-25T13:20:56.122Z,2.62
2018-07-25T13:23:24.328Z,2.47
2018-07-25T13:25:52.456Z,3.80
2018-07-25T13:28:20.570Z,2.90
2018-07-25T13:30:48.966Z,3.05
2018-07-25T13:33:17.161Z,3.40
2018-07-25T13:35:45.978Z,4.30
2018-07-25T13:38:15.572Z,2.55
2018-07-25T13:40:43.726Z,4.47
2018-07-25T13:43:11.906Z,3.10
2018-07-25T13:45:40.442Z,3.08
2018-07-25T13:48:08.820Z,3.70
2018-07-25T13:50:37.021Z,3.77
2018-07-25T13:53:05.358Z,2.60
2018-07-25T13:55:33.617Z,1.77
2018-07-25T13:58:02.357Z,3.00
2018-07-25T14:00:30.622Z,3.12
2018-07-25T14:02:58.896Z,4.00
2018-07-25T14:05:27.110Z,2.95
2018-07-25T14:07:55.334Z,2.40
2018-07-25T14:10:23.544Z,2.62
2018-07-25T14:12:51.752Z,2.70
2018-07-25T14:15:20.055Z,4.17
2018-07-25T14:17:48.237Z,2.62
2018-07-25T14:20:16.487Z,2.87
2018-07-25T14:22:44.667Z,2.40
2018-07-25T14:25:12.963Z,4.45
2018-07-25T14:27:41.195Z,4.15
2018-07-25T14:30:10.052Z,3.20
2018-07-25T14:32:38.261Z,2.37
2018-07-25T14:35:06.484Z,3.47
2018-07-25T14:37:34.869Z,2.62
2018-07-25T14:40:03.245Z,2.37
2018-07-25T14:42:32.503Z,4.30
2018-07-25T14:45:00.765Z,2.60
2018-07-25T14:47:29.638Z,3.77
2018-07-25T14:49:57.928Z,3.60
2018-07-25T14:52:26.128Z,2.85
2018-07-25T14:54:54.316Z,2.60
2018-07-25T14:57:22.806Z,2.67
2018-07-25T14:59:50.862Z,3.15
2018-07-25T15:02:19.086Z,3.52
2018-07-25T15:04:47.267Z,2.22
2018-07-25T15:07:15.542Z,2.75
2018-07-25T15:09:43.763Z,2.40
2018-07-25T15:12:12.070Z,4.42
2018-07-25T15:14:40.296Z,2.72
2018-07-25T15:17:08.546Z,3.27
2018-07-25T15:19:38.290Z,2.87
2018-07-25T15:22:07.402Z,2.35
2018-07-25T15:24:35.598Z,3.83
2018-07-25T15:27:03.903Z,2.52
2018-07-25T15:29:32.161Z,2.22
2018-07-25T15:32:01.561Z,4.03
2018-07-25T15:34:29.704Z,2.52
2018-07-25T15:36:58.928Z,2.80
2018-07-25T15:39:27.734Z,2.92
2018-07-25T15:41:57.181Z,3.00
2018-07-25T15:44:26.270Z,3.20
2018-07-25T15:46:54.506Z,4.83
2018-07-25T15:49:22.585Z,2.80
2018-07-25T15:51:50.782Z,3.02
2018-07-25T15:54:19.061Z,3.02
2018-07-25T15:56:47.284Z,2.95
2018-07-25T15:59:16.159Z,3.33
2018-07-25T16:01:44.441Z,3.37
2018-07-25T16:04:12.666Z,3.08
2018-07-25T16:06:40.902Z,2.60
2018-07-25T16:09:10.811Z,4.80
2018-07-25T16:11:39.707Z,2.50
2018-07-25T16:14:08.254Z,2.70
2018-07-25T16:16:36.507Z,2.67
2018-07-25T16:19:05.244Z,2.72
2018-07-25T16:21:33.391Z,3.70
2018-07-25T16:24:01.610Z,3.77
2018-07-25T16:26:29.738Z,3.90
2018-07-25T16:28:57.923Z,3.27
2018-07-25T16:31:26.063Z,3.92
2018-07-25T16:33:54.459Z,3.87
2018-07-25T16:36:22.759Z,2.90
2018-07-25T16:38:50.941Z,3.17
2018-07-25T16:41:19.205Z,3.40
2018-07-25T16:43:48.205Z,2.70
2018-07-25T16:46:16.635Z,2.95
2018-07-25T16:48:45.397Z,2.95
2018-07-25T16:51:13.746Z,4.62
2018-07-25T16:53:42.277Z,2.83
2018-07-25T16:56:10.488Z,4.20
2018-07-25T16:58:38.630Z,3.70
2018-07-25T17:01:06.773Z,4.03
2018-07-25T17:03:34.817Z,2.65
2018-07-25T17:06:03.067Z,2.33
2018-07-25T17:08:31.193Z,4.08
2018-07-25T17:10:59.314Z,2.70
2018-07-25T17:13:27.488Z,3.25
2018-07-25T17:15:55.647Z,3.87
2018-07-25T17:18:23.862Z,2.87
2018-07-25T17:20:52.561Z,3.05
2018-07-25T17:23:20.881Z,3.47
2018-07-25T17:25:48.963Z,3.90
2018-07-25T17:28:17.082Z,8.48
2018-07-25T17:30:45.568Z,4.83
2018-07-25T17:33:14.985Z,5.55
2018-07-25T17:35:43.469Z,5.05
2018-07-25T17:38:11.776Z,4.70
2018-07-25T17:40:39.970Z,4.08
2018-07-25T17:43:08.367Z,3.62
2018-07-25T17:45:37.009Z,3.62
2018-07-25T17:48:05.178Z,5.28
2018-07-25T17:50:33.352Z,5.00
2018-07-25T17:53:01.393Z,5.12
2018-07-25T17:55:30.090Z,7.78
2018-07-25T17:57:58.185Z,6.33
2018-07-25T18:00:26.382Z,5.87
2018-07-25T18:02:54.506Z,6.47
2018-07-25T18:05:22.800Z,7.20
2018-07-25T18:07:51.141Z,6.95
2018-07-25T18:10:19.333Z,5.97
2018-07-25T18:12:47.724Z,6.43
2018-07-25T18:15:15.927Z,4.80
2018-07-25T18:17:44.148Z,6.20
2018-07-25T18:20:12.274Z,7.60
2018-07-25T18:22:40.613Z,5.00
2018-07-25T18:25:08.801Z,5.10
2018-07-25T18:27:36.993Z,5.07
2018-07-25T18:30:06.765Z,6.90
2018-07-25T18:32:34.899Z,4.73
2018-07-25T18:35:03.225Z,5.90
2018-07-25T18:37:31.445Z,4.77
2018-07-25T18:39:59.724Z,6.37
2018-07-25T18:42:27.872Z,5.37
2018-07-25T18:44:56.155Z,4.57
2018-07-25T18:47:24.301Z,5.63
2018-07-25T18:49:52.908Z,4.13
2018-07-25T18:52:21.155Z,4.10
2018-07-25T18:54:49.366Z,3.57
2018-07-25T18:57:17.622Z,5.07
2018-07-25T18:59:45.900Z,5.27
2018-07-25T19:02:14.127Z,5.70
2018-07-25T19:04:43.017Z,4.80
2018-07-25T19:07:11.197Z,3.73
2018-07-25T19:09:39.409Z,3.57
2018-07-25T19:12:07.761Z,4.00
2018-07-25T19:14:41.708Z,3.73
2018-07-25T19:17:09.924Z,5.23
2018-07-25T19:19:38.183Z,4.00
2018-07-25T19:22:06.345Z,5.83
2018-07-25T19:24:34.569Z,3.77
2018-07-25T19:27:02.883Z,3.13
2018-07-25T19:29:31.092Z,3.17
2018-07-25T19:31:59.336Z,4.20
2018-07-25T19:34:28.392Z,3.87
2018-07-25T19:36:56.458Z,2.60
2018-07-25T19:39:28.044Z,3.10
2018-07-25T19:41:57.568Z,4.83
2018-07-25T19:44:25.660Z,3.23
2018-07-25T19:46:53.936Z,3.43
2018-07-25T19:49:22.322Z,4.83
2018-07-25T19:51:50.430Z,4.40
2018-07-25T19:54:18.600Z,3.63
2018-07-25T19:56:50.306Z,2.83
2018-07-25T19:59:18.991Z,4.07
2018-07-25T20:01:47.780Z,3.33
2018-07-25T20:04:15.886Z,4.07
2018-07-25T20:06:44.241Z,3.10
2018-07-25T20:09:12.488Z,3.80
2018-07-25T20:11:40.871Z,4.77
2018-07-25T20:15:14.673Z,3.47
2018-07-25T20:17:42.887Z,4.70
2018-07-25T20:20:11.123Z,2.53
2018-07-25T20:22:39.423Z,3.27
2018-07-25T20:25:07.664Z,2.30
2018-07-25T20:27:35.869Z,4.10
2018-07-25T20:30:05.453Z,3.47
2018-07-25T20:32:33.737Z,3.67
2018-07-25T20:35:02.117Z,5.60
2018-07-25T20:37:30.242Z,3.57
2018-07-25T20:39:58.588Z,4.73
2018-07-25T20:42:26.814Z,7.57
2018-07-25T20:44:55.023Z,2.90
2018-07-25T20:47:23.381Z,3.13
2018-07-25T20:49:51.623Z,3.80
2018-07-25T20:52:20.038Z,4.17
2018-07-25T20:54:48.154Z,3.67
2018-07-25T20:57:16.385Z,4.17
2018-07-25T20:59:44.687Z,4.20
2018-07-25T21:02:12.995Z,3.53
2018-07-25T21:04:41.150Z,4.83
2018-07-25T21:07:09.369Z,4.43
2018-07-25T21:09:37.612Z,4.03
2018-07-25T21:12:05.849Z,5.93
2018-07-25T21:14:33.979Z,3.47
2018-07-25T21:17:02.173Z,3.43
2018-07-25T21:19:30.579Z,4.30
2018-07-25T21:21:58.670Z,3.90
2018-07-25T21:24:27.032Z,6.47
2018-07-25T21:26:55.099Z,3.50
2018-07-25T21:29:23.280Z,3.97
2018-07-25T21:31:51.882Z,4.03
2018-07-25T21:34:19.981Z,4.90
2018-07-25T21:36:48.261Z,4.13
2018-07-25T21:39:16.470Z,4.30
2018-07-25T21:41:44.666Z,3.60
2018-07-25T21:44:13.366Z,6.70
2018-07-25T21:46:42.164Z,6.03
2018-07-25T21:49:10.582Z,4.00
2018-07-25T21:51:38.730Z,3.23
2018-07-25T21:54:06.924Z,3.20
2018-07-25T21:56:35.208Z,6.00
2018-07-25T21:59:03.521Z,4.00
2018-07-25T22:01:38.310Z,4.57
2018-07-25T22:04:06.873Z,3.50
2018-07-25T22:06:35.095Z,4.33
2018-07-25T22:09:07.193Z,6.00
2018-07-25T22:11:35.431Z,3.70
2018-07-25T22:14:03.839Z,4.13
2018-07-25T22:16:32.273Z,6.30
2018-07-25T22:19:00.731Z,6.90
2018-07-25T22:21:28.946Z,4.07
2018-07-25T22:23:57.289Z,3.00
2018-07-25T22:26:25.535Z,3.13
2018-07-25T22:28:53.699Z,3.37
2018-07-25T22:31:21.981Z,3.93
2018-07-25T22:33:50.165Z,4.20
2018-07-25T22:36:18.513Z,4.67
2018-07-25T22:38:46.863Z,7.40
2018-07-25T22:41:15.449Z,5.53
2018-07-25T22:43:43.864Z,4.83
2018-07-25T22:46:12.270Z,6.43
2018-07-25T22:48:40.528Z,6.40
2018-07-25T22:51:08.788Z,3.80
2018-07-25T22:53:36.999Z,5.07
2018-07-25T22:56:05.309Z,4.43
2018-07-25T22:58:33.413Z,4.10
2018-07-25T23:01:01.780Z,3.33
2018-07-25T23:03:29.911Z,3.40
2018-07-25T23:05:58.103Z,3.80
2018-07-25T23:08:26.205Z,4.97
2018-07-25T23:10:54.375Z,4.03
2018-07-25T23:13:22.612Z,3.10
2018-07-25T23:15:50.894Z,4.70
2018-07-25T23:18:19.048Z,4.00
2018-07-25T23:20:47.286Z,5.40
2018-07-25T23:23:15.638Z,4.13
2018-07-25T23:25:43.971Z,5.43
2018-07-25T23:28:12.060Z,4.17
2018-07-25T23:30:40.293Z,4.20
2018-07-25T23:33:08.789Z,4.20
2018-07-25T23:35:36.974Z,4.30
2018-07-25T23:38:05.068Z,5.40
2018-07-25T23:40:33.247Z,4.87
2018-07-25T23:43:01.486Z,4.10
2018-07-25T23:45:29.777Z,5.20
2018-07-25T23:47:58.066Z,4.57
2018-07-25T23:50:26.256Z,5.83
2018-07-25T23:52:54.454Z,6.23
2018-07-25T23:55:22.628Z,4.43
2018-07-25T23:57:51.906Z,4.60
